Time;durP1;ratioP1;P1;durP2;ratioP2;P2;SDS_P1;SDS_P2;PMS_P1;PMS_P2;Temp;Humidity;BMP_temperature;BMP_pressure;BME280_temperature;BME280_humidity;BME280_pressure;Samples;Min_cycle;Max_cycle;Signal;HPM_P1;HPM_P2
2022/07/11 00:01:33;;;;;;;;;2.00;2.00;;;;;23.53;42.23;101641.25;5035874;28;45291;-59
2022/07/11 00:03:59;;;;;;;;;2.75;1.75;;;;;23.55;42.50;101637.00;5051580;28;45443;-58
2022/07/11 00:06:24;;;;;;;;;2.00;2.00;;;;;23.54;42.44;101631.72;5036124;28;45406;-58
2022/07/11 00:08:50;;;;;;;;;2.50;2.50;;;;;23.50;42.23;101641.78;5035743;28;46927;-59
2022/07/11 00:11:15;;;;;;;;;3.00;2.00;;;;;23.49;42.13;101638.16;5035976;28;45397;-60
2022/07/11 00:13:41;;;;;;;;;2.00;2.00;;;;;23.36;42.48;101624.66;5051345;28;45404;-60
2022/07/11 00:16:06;;;;;;;;;2.00;2.00;;;;;23.35;42.47;101635.03;5036188;28;45411;-59
2022/07/11 00:18:32;;;;;;;;;1.00;1.00;;;;;23.50;42.42;101638.97;5035643;28;45970;-59
2022/07/11 00:20:57;;;;;;;;;2.00;2.00;;;;;23.49;42.50;101640.09;5035791;28;45399;-60
2022/07/11 00:23:23;;;;;;;;;2.00;2.00;;;;;23.31;42.69;101619.91;5051568;28;45384;-59
2022/07/11 00:25:48;;;;;;;;;1.00;1.00;;;;;23.29;42.48;101627.72;5034620;28;45415;-60
2022/07/11 00:28:14;;;;;;;;;2.00;2.00;;;;;23.36;42.80;101642.31;5035875;28;45525;-59
2022/07/11 00:30:39;;;;;;;;;1.25;1.25;;;;;23.38;42.49;101634.47;5035734;28;45343;-59
2022/07/11 00:33:05;;;;;;;;;2.75;1.75;;;;;23.36;42.39;101635.88;5039617;28;45279;-61
2022/07/11 00:35:30;;;;;;;;;1.00;1.00;;;;;23.34;42.80;101644.56;5039524;28;45164;-58
2022/07/11 00:37:56;;;;;;;;;1.00;1.00;;;;;23.29;43.00;101636.97;5039458;28;46913;-59
2022/07/11 00:40:21;;;;;;;;;1.00;1.00;;;;;23.25;42.78;101643.38;5071686;28;45292;-59
2022/07/11 00:42:46;;;;;;;;;1.00;1.00;;;;;23.13;42.82;101626.84;5038867;28;45202;-59
2022/07/11 00:45:12;;;;;;;;;1.50;1.50;;;;;23.25;42.67;101640.59;5038353;28;45234;-59
2022/07/11 00:47:38;;;;;;;;;2.00;1.25;;;;;23.22;42.85;101629.94;5038853;28;46041;-58
2022/07/11 00:50:04;;;;;;;;;2.00;1.50;;;;;23.19;42.84;101619.28;5071318;28;45359;-58
2022/07/11 00:52:29;;;;;;;;;3.00;1.00;;;;;23.14;42.71;101615.38;5054176;28;45348;-60
2022/07/11 00:54:55;;;;;;;;;2.00;2.00;;;;;23.24;42.81;101624.91;5038011;28;45439;-58
2022/07/11 00:57:21;;;;;;;;;2.50;1.50;;;;;23.27;42.77;101618.75;5037469;28;46790;-59
2022/07/11 00:59:46;;;;;;;;;2.60;2.60;;;;;23.21;42.77;101597.47;5038594;28;45367;-59
2022/07/11 01:02:12;;;;;;;;;2.75;1.75;;;;;23.25;42.89;101607.84;5037924;28;45990;-59
2022/07/11 01:04:37;;;;;;;;;2.00;2.00;;;;;23.21;43.08;101605.88;5038793;28;45457;-59
2022/07/11 01:07:03;;;;;;;;;2.50;2.00;;;;;23.21;42.77;101608.66;5038457;28;46999;-56
2022/07/11 01:09:29;;;;;;;;;1.25;1.25;;;;;23.05;43.17;101603.00;5053663;28;45354;-59
2022/07/11 01:11:54;;;;;;;;;1.50;1.50;;;;;22.70;43.09;101560.69;5038326;28;45290;-58
2022/07/11 01:14:19;;;;;;;;;1.00;1.00;;;;;23.06;43.37;101610.31;5036760;28;45483;-58
2022/07/11 01:16:45;;;;;;;;;2.00;2.00;;;;;23.04;43.37;101604.13;5038234;28;46432;-59
2022/07/11 01:19:10;;;;;;;;;0.25;0.25;;;;;23.04;43.21;101600.50;5053626;28;45307;-58
2022/07/11 01:21:40;;;;;;;;;1.75;1.75;;;;;22.92;43.38;101575.56;5036962;28;45270;-60
2022/07/11 01:24:06;;;;;;;;;1.80;1.80;;;;;23.05;43.28;101602.19;5053816;27;45337;-58
2022/07/11 01:26:34;;;;;;;;;0.80;0.80;;;;;22.95;43.20;101609.44;5037971;28;45864;-59
2022/07/11 01:29:06;;;;;;;;;2.00;2.00;;;;;22.97;43.21;101604.41;5053020;28;45275;-59
2022/07/11 01:31:32;;;;;;;;;1.00;1.00;;;;;22.93;43.81;101606.06;5036576;28;45317;-59
2022/07/11 01:33:58;;;;;;;;;1.00;1.00;;;;;22.69;43.64;101569.34;5036913;28;45409;-60
2022/07/11 01:36:23;;;;;;;;;1.00;1.00;;;;;22.87;43.84;101602.44;5038023;28;45640;-56
2022/07/11 01:38:49;;;;;;;;;2.75;1.00;;;;;22.93;43.56;101606.06;5036715;28;45351;-58
2022/07/11 01:41:14;;;;;;;;;1.75;1.75;;;;;22.69;43.81;101580.53;5037845;28;45427;-59
2022/07/11 01:43:40;;;;;;;;;2.00;2.00;;;;;22.78;43.89;101587.28;5037317;28;45370;-59
2022/07/11 01:46:05;;;;;;;;;1.50;1.50;;;;;22.83;43.65;101590.09;5037758;28;45352;-59
2022/07/11 01:48:30;;;;;;;;;2.00;2.00;;;;;22.91;43.61;101596.25;5037911;28;45350;-56
2022/07/11 01:50:56;;;;;;;;;1.75;1.75;;;;;22.85;43.98;101601.00;5036499;28;45418;-59
2022/07/11 01:53:22;;;;;;;;;2.00;2.00;;;;;22.81;43.77;101597.06;5053100;28;45663;-59
2022/07/11 01:55:47;;;;;;;;;1.25;1.25;;;;;22.73;43.87;101593.69;5037198;28;45807;-58
2022/07/11 01:58:13;;;;;;;;;1.00;1.00;;;;;22.59;43.92;101568.19;5037616;28;45342;-58
2022/07/11 02:00:38;;;;;;;;;1.25;1.25;;;;;22.74;43.90;101595.38;5024788;28;45385;-56
2022/07/11 02:03:04;;;;;;;;;3.00;3.00;;;;;22.52;44.24;101559.19;5036741;28;45744;-59
2022/07/11 02:05:29;;;;;;;;;3.25;0.25;;;;;22.75;44.08;101604.63;5034343;28;46530;-59
2022/07/11 02:08:13;;;;;;;;;1.00;1.00;;;;;22.55;44.15;101578.25;5034825;28;45407;-59
2022/07/11 02:10:46;;;;;;;;;2.00;2.00;;;;;22.72;44.07;101613.53;5033994;28;45494;-59
2022/07/11 02:13:16;;;;;;;;;2.40;2.40;;;;;22.63;44.26;101604.00;5019118;28;45516;-59
2022/07/11 02:15:42;;;;;;;;;3.00;2.00;;;;;22.54;44.45;101593.34;5036011;28;46427;-58
2022/07/11 02:18:07;;;;;;;;;2.00;2.00;;;;;22.56;44.06;101599.50;5019508;28;45542;-58
2022/07/11 02:20:33;;;;;;;;;1.75;1.75;;;;;22.53;44.30;101605.66;5036053;28;45349;-58
2022/07/11 02:22:58;;;;;;;;;1.00;1.00;;;;;22.56;44.59;101610.69;5037338;28;45306;-59
2022/07/11 02:25:24;;;;;;;;;1.00;1.00;;;;;22.55;44.17;101608.16;5037340;28;46104;-55
2022/07/11 02:27:50;;;;;;;;;1.00;1.00;;;;;22.50;44.50;101608.94;5036235;28;45329;-55
2022/07/11 02:30:15;;;;;;;;;1.00;1.00;;;;;22.51;44.72;101602.25;5037586;28;45358;-61
2022/07/11 02:32:41;;;;;;;;;3.50;2.00;;;;;22.65;44.38;101608.22;5035901;28;45353;-58
2022/07/11 02:35:07;;;;;;;;;2.75;2.75;;;;;22.63;44.39;101598.41;5035995;28;46247;-58
2022/07/11 02:37:32;;;;;;;;;1.00;1.00;;;;;22.49;44.01;101584.91;5036149;28;45404;-57
2022/07/11 02:39:57;;;;;;;;;2.00;2.00;;;;;22.58;44.35;101610.44;5036053;28;45244;-58
2022/07/11 02:42:23;;;;;;;;;1.00;1.00;;;;;22.45;44.31;101589.34;5037631;28;45467;-60
2022/07/11 02:44:48;;;;;;;;;1.50;1.50;;;;;22.53;44.24;101602.84;5036934;28;46790;-59
2022/07/11 02:47:14;;;;;;;;;1.00;1.00;;;;;22.50;44.43;101602.53;5037217;28;45325;-57
2022/07/11 02:49:40;;;;;;;;;1.25;1.25;;;;;22.50;44.17;101596.94;5036889;28;45291;-59
2022/07/11 02:52:05;;;;;;;;;1.75;1.00;;;;;22.56;44.10;101607.03;5036078;28;45314;-58
2022/07/11 02:54:31;;;;;;;;;1.00;1.00;;;;;22.52;44.36;101594.72;5034831;28;47219;-59
2022/07/11 02:56:56;;;;;;;;;1.00;1.00;;;;;22.47;44.42;101581.53;5018853;28;45333;-59
2022/07/11 02:59:22;;;;;;;;;1.00;1.00;;;;;22.63;44.39;101601.22;5037088;28;45338;-59
2022/07/11 03:01:48;;;;;;;;;1.00;1.00;;;;;22.59;44.25;101607.38;5019338;28;45369;-59
2022/07/11 03:04:14;;;;;;;;;2.00;2.00;;;;;22.55;44.54;101596.97;5009519;28;46464;-58
2022/07/11 03:06:39;;;;;;;;;1.00;1.00;;;;;22.46;44.69;101602.19;5036575;28;45324;-59
2022/07/11 03:09:05;;;;;;;;;1.00;1.00;;;;;22.36;44.63;101571.41;5051884;28;45397;-55
2022/07/11 03:11:31;;;;;;;;;1.00;1.00;;;;;22.47;44.50;101587.13;5069383;28;45225;-60
2022/07/11 03:13:57;;;;;;;;;2.00;2.00;;;;;22.46;44.61;101585.41;5035939;28;45916;-60
2022/07/11 03:16:23;;;;;;;;;2.00;2.00;;;;;22.53;44.44;101586.06;5035347;28;45258;-60
2022/07/11 03:18:48;;;;;;;;;2.00;2.00;;;;;22.45;44.52;101579.00;5036235;28;45351;-57
2022/07/11 03:21:13;;;;;;;;;1.50;1.50;;;;;22.46;44.60;101583.47;5036292;28;45458;-57
2022/07/11 03:23:39;;;;;;;;;1.25;1.25;;;;;22.39;44.69;101579.25;5035760;28;46400;-60
2022/07/11 03:26:04;;;;;;;;;2.00;2.00;;;;;22.39;44.87;101579.25;5036387;28;45510;-57
2022/07/11 03:28:30;;;;;;;;;1.00;1.00;;;;;22.34;44.59;101572.53;5034954;28;45492;-61
2022/07/11 03:30:55;;;;;;;;;1.00;1.00;;;;;22.41;44.84;101577.84;5035139;28;45375;-57
2022/07/11 03:33:21;;;;;;;;;2.00;2.00;;;;;22.47;45.03;101596.34;5035726;28;46938;-58
2022/07/11 03:35:47;;;;;;;;;2.50;2.50;;;;;22.36;45.05;101596.56;5036037;28;45806;-57
2022/07/11 03:38:12;;;;;;;;;1.00;1.00;;;;;22.19;45.38;101587.25;5035188;28;45442;-56
2022/07/11 03:40:38;;;;;;;;;2.25;2.25;;;;;22.03;45.54;101586.31;5036048;28;45362;-57
2022/07/11 03:43:04;;;;;;;;;2.40;1.60;;;;;21.98;45.42;101563.91;5034518;28;45745;-59
2022/07/11 03:45:29;;;;;;;;;1.50;1.50;;;;;22.03;45.49;101561.16;5034548;28;45336;-60
2022/07/11 03:47:55;;;;;;;;;3.00;3.00;;;;;22.23;45.83;101606.28;5051547;28;45363;-56
2022/07/11 03:50:20;;;;;;;;;2.50;1.00;;;;;22.19;45.89;101605.97;5035717;28;45534;-55
2022/07/11 03:52:46;;;;;;;;;2.00;2.00;;;;;22.10;45.67;101577.72;5034617;28;46390;-59
2022/07/11 03:55:12;;;;;;;;;4.00;4.00;;;;;22.06;45.73;101571.81;5036053;28;45407;-57
2022/07/11 03:57:37;;;;;;;;;5.00;3.00;;;;;22.24;45.37;101592.03;5050964;28;45414;-59
2022/07/11 04:00:07;;;;;;;;;2.25;2.25;;;;;22.17;45.62;101575.50;5036089;28;45452;-58
2022/07/11 04:02:33;;;;;;;;;2.00;2.00;;;;;22.31;45.56;101595.41;5050787;28;45512;-59
2022/07/11 04:04:58;;;;;;;;;2.50;2.50;;;;;22.32;45.39;101602.69;5035199;28;45337;-55
2022/07/11 04:07:24;;;;;;;;;2.50;2.00;;;;;22.36;45.58;101605.78;5034717;28;45340;-59
2022/07/11 04:09:49;;;;;;;;;2.25;1.50;;;;;22.33;45.26;101587.63;5035481;28;45206;-57
2022/07/11 04:12:15;;;;;;;;;3.75;3.00;;;;;22.28;45.56;101581.16;5034365;28;46820;-59
2022/07/11 04:14:41;;;;;;;;;2.00;2.00;;;;;22.25;45.69;101590.09;5035078;28;45371;-55
2022/07/11 04:17:06;;;;;;;;;2.00;2.00;;;;;22.02;45.67;101556.69;5035652;28;45345;-56
2022/07/11 04:19:31;;;;;;;;;2.25;2.25;;;;;22.23;45.72;101592.28;5035473;28;45357;-58
2022/07/11 04:21:58;;;;;;;;;2.00;0.50;;;;;22.24;45.81;101583.63;5034076;28;46753;-58
2022/07/11 04:24:23;;;;;;;;;4.00;3.00;;;;;22.32;45.55;101597.09;5035168;28;45342;-57
2022/07/11 04:26:49;;;;;;;;;4.00;3.00;;;;;22.31;45.56;101589.81;5035562;28;45404;-58
2022/07/11 04:29:14;;;;;;;;;1.75;1.75;;;;;22.26;45.66;101588.97;5034438;28;45408;-58
2022/07/11 04:31:40;;;;;;;;;3.50;2.50;;;;;22.33;45.65;101590.41;5050252;28;45588;-57
2022/07/11 04:34:05;;;;;;;;;3.00;3.00;;;;;22.38;45.61;101603.56;5051125;28;45965;-56
2022/07/11 04:36:31;;;;;;;;;3.00;2.50;;;;;22.33;45.88;101595.16;5035550;28;45815;-59
2022/07/11 04:38:56;;;;;;;;;3.00;3.00;;;;;22.28;45.91;101589.53;5035116;28;45394;-58
2022/07/11 04:41:22;;;;;;;;;3.50;3.50;;;;;22.43;45.40;101616.75;5035117;28;45923;-58
2022/07/11 04:43:47;;;;;;;;;2.00;2.00;;;;;22.46;45.38;101616.19;5035049;28;45383;-56
2022/07/11 04:46:14;;;;;;;;;2.75;2.75;;;;;22.22;45.34;101585.88;5034345;28;45424;-56
2022/07/11 04:48:39;;;;;;;;;3.20;3.20;;;;;22.33;45.55;101603.53;5035211;28;45526;-59
2022/07/11 04:51:06;;;;;;;;;2.75;2.75;;;;;22.40;45.46;101618.13;5050478;28;46635;-58
2022/07/11 04:53:32;;;;;;;;;2.60;1.80;;;;;22.41;45.86;101621.78;5035173;28;45222;-59
2022/07/11 04:55:58;;;;;;;;;3.00;3.00;;;;;22.40;45.68;101618.13;5033650;28;45414;-58
2022/07/11 04:58:23;;;;;;;;;4.75;3.25;;;;;22.41;45.67;101622.59;5035478;28;45199;-57
2022/07/11 05:00:48;;;;;;;;;4.00;2.75;;;;;22.37;45.49;101610.28;5034862;28;46487;-55
2022/07/11 05:03:14;;;;;;;;;3.00;3.00;;;;;22.40;45.57;101623.72;5067344;28;45367;-56
2022/07/11 05:05:40;;;;;;;;;4.40;2.60;;;;;22.27;45.75;101599.88;5034548;28;45404;-57
2022/07/11 05:08:06;;;;;;;;;4.25;4.25;;;;;22.44;45.33;101626.81;5033916;28;45305;-55
2022/07/11 05:10:33;;;;;;;;;4.00;3.00;;;;;22.42;45.74;101617.84;5033258;28;45563;-59
2022/07/11 05:12:59;;;;;;;;;4.00;4.00;;;;;22.40;45.65;101614.50;5034367;28;45321;-55
2022/07/11 05:15:24;;;;;;;;;3.25;3.25;;;;;22.40;45.78;101623.72;5034785;28;45349;-59
2022/07/11 05:17:50;;;;;;;;;3.00;3.00;;;;;22.44;45.45;101619.28;5035973;28;45310;-58
2022/07/11 05:20:15;;;;;;;;;3.25;2.25;;;;;22.47;45.56;101637.47;5037746;28;45449;-58
2022/07/11 05:22:41;;;;;;;;;6.00;6.00;;;;;22.39;45.96;101627.63;5038157;28;45272;-53
2022/07/11 05:25:07;;;;;;;;;3.00;3.00;;;;;22.43;45.92;101639.13;5038208;28;45242;-56
2022/07/11 05:27:32;;;;;;;;;3.75;3.75;;;;;22.15;45.77;101594.47;5037238;28;45433;-59
2022/07/11 05:29:58;;;;;;;;;3.25;3.25;;;;;22.47;45.59;101637.47;5037523;28;45662;-59
2022/07/11 05:32:23;;;;;;;;;4.00;4.00;;;;;22.25;45.99;101612.44;5038134;28;45341;-59
2022/07/11 05:34:49;;;;;;;;;2.00;2.00;;;;;22.49;45.82;101640.84;5037973;28;45419;-54
2022/07/11 05:37:14;;;;;;;;;5.75;5.00;;;;;22.55;45.43;101650.97;5038349;28;45400;-57
2022/07/11 05:39:39;;;;;;;;;3.75;3.75;;;;;22.55;45.62;101644.50;5037459;28;47028;-58
2022/07/11 05:42:05;;;;;;;;;3.00;3.00;;;;;22.56;45.71;101643.41;5037825;28;45393;-57
2022/07/11 05:44:31;;;;;;;;;2.50;2.50;;;;;22.52;45.50;101634.72;5037904;28;45385;-58
2022/07/11 05:47:03;;;;;;;;;5.25;3.75;;;;;22.55;45.49;101634.19;5036847;28;45390;-57
2022/07/11 05:49:30;;;;;;;;;3.00;3.00;;;;;22.66;45.27;101637.88;5053125;28;46801;-57
2022/07/11 05:51:56;;;;;;;;;5.00;5.00;;;;;22.69;45.68;101634.50;5052918;28;45464;-58
2022/07/11 05:54:21;;;;;;;;;4.25;4.25;;;;;22.63;45.51;101631.97;5037697;28;45444;-56
2022/07/11 05:56:47;;;;;;;;;5.25;4.75;;;;;22.68;45.20;101638.44;5053266;28;45425;-57
2022/07/11 05:59:13;;;;;;;;;3.50;3.50;;;;;22.68;45.64;101646.00;5037477;28;46716;-60
2022/07/11 06:01:39;;;;;;;;;4.80;4.80;;;;;22.52;45.56;101617.94;5036050;28;45397;-52
2022/07/11 06:04:04;;;;;;;;;5.00;5.00;;;;;22.73;45.65;101648.81;5037773;28;45210;-59
2022/07/11 06:06:30;;;;;;;;;3.50;3.25;;;;;22.58;45.40;101630.81;5037747;28;45293;-57
2022/07/11 06:08:55;;;;;;;;;3.75;3.75;;;;;22.46;45.42;101610.59;5035416;28;45444;-58
2022/07/11 06:11:21;;;;;;;;;3.75;3.75;;;;;22.63;45.41;101634.78;5037482;28;45278;-52
2022/07/11 06:13:48;;;;;;;;;2.50;2.25;;;;;22.42;45.47;101607.50;5019548;28;45302;-56
2022/07/11 06:16:14;;;;;;;;;3.00;3.00;;;;;22.68;45.55;101646.00;5017850;28;45476;-55
2022/07/11 06:18:39;;;;;;;;;2.50;2.50;;;;;22.44;45.49;101616.47;5037253;28;46021;-56
2022/07/11 06:21:05;;;;;;;;;3.75;3.75;;;;;22.57;45.71;101643.13;5035966;28;45435;-59
2022/07/11 06:23:31;;;;;;;;;4.50;4.00;;;;;22.58;45.67;101650.41;5036480;28;45373;-59
2022/07/11 06:25:56;;;;;;;;;2.80;2.80;;;;;22.62;45.86;101656.31;5036149;28;45468;-57
2022/07/11 06:28:22;;;;;;;;;5.75;4.25;;;;;22.44;45.78;101624.00;5052841;28;46099;-53
2022/07/11 06:30:48;;;;;;;;;3.00;3.00;;;;;22.52;45.63;101620.72;5037116;28;45386;-53
2022/07/11 06:33:16;;;;;;;;;3.50;3.50;;;;;22.63;46.11;101658.00;5037125;28;45467;-56
2022/07/11 06:35:42;;;;;;;;;5.40;3.60;;;;;22.60;46.16;101648.19;5036224;28;45392;-52
2022/07/11 06:38:07;;;;;;;;;3.20;3.20;;;;;22.44;45.96;101619.28;5037346;28;46521;-52
2022/07/11 06:40:33;;;;;;;;;9.50;6.75;;;;;22.67;45.91;101649.91;5037021;28;45349;-57
2022/07/11 06:42:58;;;;;;;;;4.50;4.00;;;;;22.70;46.26;101660.53;5037083;28;45209;-57
2022/07/11 06:45:24;;;;;;;;;3.75;3.75;;;;;22.54;45.67;101614.88;5037373;28;45511;-56
2022/07/11 06:47:49;;;;;;;;;6.25;5.00;;;;;22.79;45.57;101641.28;5036974;28;46665;-56
2022/07/11 06:50:15;;;;;;;;;3.25;3.25;;;;;22.60;45.67;101603.44;5036649;28;45392;-54
2022/07/11 06:52:40;;;;;;;;;2.00;2.00;;;;;22.84;45.77;101642.13;5037116;28;45433;-59
2022/07/11 06:55:07;;;;;;;;;3.25;3.25;;;;;22.66;45.34;101607.09;5037194;28;45581;-61
2022/07/11 06:57:32;;;;;;;;;5.00;4.00;;;;;22.95;45.88;101643.00;5036518;28;45656;-59
2022/07/11 06:59:57;;;;;;;;;4.75;3.75;;;;;22.97;45.48;101646.41;5018376;28;45330;-60
2022/07/11 07:02:27;;;;;;;;;4.00;4.00;;;;;22.92;45.11;101634.31;5037021;28;45408;-61
2022/07/11 07:04:53;;;;;;;;;2.80;2.80;;;;;22.92;45.46;101637.97;5037113;28;45211;-61
2022/07/11 07:07:19;;;;;;;;;2.25;2.25;;;;;22.91;45.32;101633.50;5013723;28;45847;-61
2022/07/11 07:09:44;;;;;;;;;3.25;3.00;;;;;23.00;45.46;101640.25;5056289;28;45712;-59
2022/07/11 07:12:10;;;;;;;;;4.50;3.00;;;;;23.07;45.42;101640.00;5056790;28;45497;-57
2022/07/11 07:14:36;;;;;;;;;5.00;2.60;;;;;23.17;44.96;101639.19;5056493;28;45357;-56
2022/07/11 07:17:01;;;;;;;;;3.00;3.00;;;;;23.14;45.17;101639.72;5032353;28;46569;-56
2022/07/11 07:19:27;;;;;;;;;4.00;3.75;;;;;23.18;44.82;101628.81;5056761;28;45420;-54
2022/07/11 07:21:52;;;;;;;;;4.25;2.75;;;;;23.36;44.35;101647.06;5055215;28;45400;-57
2022/07/11 07:24:18;;;;;;;;;3.00;3.00;;;;;23.40;45.18;101648.22;5056667;28;45357;-57
2022/07/11 07:26:44;;;;;;;;;2.75;2.75;;;;;23.47;44.95;101650.75;5071665;28;45700;-59
2022/07/11 07:29:09;;;;;;;;;4.75;3.75;;;;;23.44;44.50;101646.56;5055126;28;45421;-61
2022/07/11 07:31:35;;;;;;;;;4.25;3.00;;;;;23.47;44.29;101647.97;5018819;28;46010;-61
2022/07/11 07:34:00;;;;;;;;;3.00;3.00;;;;;23.50;44.80;101653.00;5028605;28;45872;-62
2022/07/11 07:36:26;;;;;;;;;3.00;2.00;;;;;23.39;44.22;101629.72;5047690;28;48658;-61
2022/07/11 07:38:51;;;;;;;;;3.00;3.00;;;;;23.48;44.36;101650.47;5051060;28;45380;-61
2022/07/11 07:41:17;;;;;;;;;4.00;3.00;;;;;23.54;44.06;101649.34;5060979;28;45753;-60
2022/07/11 07:43:42;;;;;;;;;2.50;2.50;;;;;23.56;44.11;101640.66;5057643;27;45396;-62
2022/07/11 07:46:11;;;;;;;;;2.50;2.50;;;;;23.64;43.80;101651.31;5049392;28;46783;-62
2022/07/11 07:48:37;;;;;;;;;3.20;3.20;;;;;23.51;44.13;101621.06;5066237;28;45463;-61
2022/07/11 07:51:03;;;;;;;;;5.40;3.00;;;;;23.75;44.03;101649.34;5070542;27;45423;-63
2022/07/11 07:53:29;;;;;;;;;2.75;2.75;;;;;23.73;43.57;101646.00;5066054;27;45919;-59
2022/07/11 07:55:54;;;;;;;;;4.00;2.00;;;;;23.79;43.65;101658.03;5051023;28;46119;-61
2022/07/11 07:58:20;;;;;;;;;2.00;2.00;;;;;23.81;43.70;101661.44;5049827;28;45411;-62
2022/07/11 08:03:30;;;;;;;;;4.00;2.80;;;;;23.67;43.31;101619.97;5085405;27;45552;-63
2022/07/11 08:05:56;;;;;;;;;4.40;3.00;;;;;23.99;43.57;101653.56;5071339;27;46586;-60
2022/07/11 08:08:21;;;;;;;;;4.00;3.00;;;;;24.01;42.85;101646.56;5071319;28;45390;-61
2022/07/11 08:10:47;;;;;;;;;3.25;2.75;;;;;24.05;43.45;101655.25;5071651;27;45886;-60
2022/07/11 08:13:12;;;;;;;;;4.00;2.25;;;;;23.90;43.05;101626.09;5071246;27;45659;-60
2022/07/11 08:15:38;;;;;;;;;2.50;2.50;;;;;24.11;43.19;101662.56;5068532;27;45494;-62
2022/07/11 08:18:03;;;;;;;;;1.75;1.75;;;;;23.86;42.76;101615.75;5068185;28;46211;-60
2022/07/11 08:20:29;;;;;;;;;2.25;2.25;;;;;23.99;42.91;101633.94;5104535;27;45563;-61
2022/07/11 08:22:59;;;;;;;;;3.00;3.00;;;;;24.16;42.94;101654.16;5071694;27;45621;-61
2022/07/11 08:25:25;;;;;;;;;1.80;1.60;;;;;24.16;43.06;101640.13;5071487;28;45446;-60
2022/07/11 08:27:50;;;;;;;;;1.75;1.75;;;;;24.27;42.55;101643.75;5071344;27;45426;-60
2022/07/11 08:30:16;;;;;;;;;4.00;4.00;;;;;24.26;42.47;101635.63;5051722;27;47371;-60
2022/07/11 08:32:41;;;;;;;;;2.00;2.00;;;;;24.18;42.82;101606.19;5066832;28;45610;-60
2022/07/11 08:35:07;;;;;;;;;4.00;3.00;;;;;24.37;42.32;101628.84;5051188;28;46678;-54
2022/07/11 08:37:33;;;;;;;;;3.00;2.20;;;;;24.21;42.77;101589.66;5051210;28;45421;-58
2022/07/11 08:39:58;;;;;;;;;4.50;2.25;;;;;24.42;42.95;101611.16;5050991;28;45865;-60
2022/07/11 08:42:24;;;;;;;;;4.00;4.00;;;;;24.50;42.87;101617.03;5051459;28;45356;-57
2022/07/11 08:44:50;;;;;;;;;3.75;2.75;;;;;24.49;42.53;101617.34;5032519;28;46377;-60
2022/07/11 08:47:15;;;;;;;;;3.00;3.00;;;;;24.42;42.23;101591.53;5039051;28;46086;-60
2022/07/11 08:49:40;;;;;;;;;2.00;2.00;;;;;24.54;42.58;101602.44;5035341;28;45724;-59
2022/07/11 08:52:07;;;;;;;;;4.00;4.00;;;;;24.57;42.56;101596.25;5083833;27;45634;-58
2022/07/11 08:54:32;;;;;;;;;0.00;0.00;;;;;24.63;42.79;101609.13;5068914;27;46675;-59
2022/07/11 08:56:58;;;;;;;;;3.25;3.00;;;;;24.47;42.86;101581.16;5052873;28;45521;-56
2022/07/11 08:59:24;;;;;;;;;2.25;2.25;;;;;24.68;42.33;101597.91;5052840;28;45438;-59
2022/07/11 09:01:49;;;;;;;;;2.00;2.00;;;;;24.64;42.69;101591.16;5053355;28;45409;-60
2022/07/11 09:04:15;;;;;;;;;3.25;3.25;;;;;24.76;42.23;101605.72;5052195;28;46455;-60
2022/07/11 09:06:40;;;;;;;;;2.00;2.00;;;;;24.79;42.77;101593.06;5069979;28;45745;-61
2022/07/11 09:09:06;;;;;;;;;2.50;2.50;;;;;24.87;42.42;101605.69;5069581;28;45405;-59
2022/07/11 09:11:51;;;;;;;;;4.75;2.75;;;;;24.86;41.93;101604.84;5069556;28;45367;-60
2022/07/11 09:14:30;;;;;;;;;2.60;2.60;;;;;24.67;42.33;101567.31;5052541;28;46074;-61
2022/07/11 09:17:00;;;;;;;;;3.20;2.00;;;;;24.95;42.27;101596.66;5069385;28;45500;-61
2022/07/11 09:19:43;;;;;;;;;3.00;3.00;;;;;24.96;42.20;101580.66;5067558;27;45489;-60
2022/07/11 09:28:06;;;;;;;;;2.80;2.00;;;;;25.07;42.17;101595.47;5087308;27;45550;-58
2022/07/11 09:30:39;;;;;;;;;4.80;3.60;;;;;24.92;42.50;101549.53;5065375;27;45698;-59
2022/07/11 09:33:06;;;;;;;;;1.20;1.20;;;;;25.11;42.58;101577.75;5052760;28;45761;-58
2022/07/11 09:35:35;;;;;;;;;3.60;3.40;;;;;25.22;42.54;101583.28;5055183;28;45922;-57
2022/07/11 09:38:04;;;;;;;;;3.00;3.00;;;;;25.28;42.27;101580.16;5035903;28;45800;-58
2022/07/11 09:40:30;;;;;;;;;3.00;2.00;;;;;25.31;42.27;101579.56;5053512;28;45516;-60
2022/07/11 09:42:57;;;;;;;;;3.00;3.00;;;;;25.37;42.18;101569.16;5053504;28;45556;-56
2022/07/11 09:45:24;;;;;;;;;3.20;3.20;;;;;25.42;41.58;101568.25;5068747;28;45615;-59
2022/07/11 09:47:55;;;;;;;;;2.80;2.60;;;;;25.50;41.90;101581.69;5053397;28;45503;-62
2022/07/11 09:50:21;;;;;;;;;4.40;2.80;;;;;25.51;41.82;101565.66;5057492;28;45484;-61
2022/07/11 09:53:03;;;;;;;;;2.80;2.80;;;;;25.43;41.26;101559.56;5073782;27;45446;-60
2022/07/11 09:55:39;;;;;;;;;2.20;2.20;;;;;25.43;41.66;101544.66;5073307;27;45767;-60
2022/07/11 09:58:09;;;;;;;;;4.80;4.80;;;;;25.53;42.16;101555.84;5072045;28;45917;-60
2022/07/11 10:00:35;;;;;;;;;4.00;3.00;;;;;25.64;41.18;101559.41;5072058;27;45791;-59
2022/07/11 10:03:01;;;;;;;;;4.00;3.20;;;;;25.16;41.08;101489.81;5089254;27;46115;-59
2022/07/11 10:05:27;;;;;;;;;2.75;2.75;;;;;25.76;41.49;101564.63;5052573;28;46496;-60
2022/07/11 10:07:53;;;;;;;;;6.00;3.00;;;;;25.77;41.15;101562.66;5051613;28;45694;-61
2022/07/11 10:10:18;;;;;;;;;3.75;2.00;;;;;25.87;40.81;101575.78;5071366;27;45920;-60
2022/07/11 10:12:46;;;;;;;;;4.00;4.00;;;;;25.94;41.02;101576.25;5073793;27;45550;-60
2022/07/11 10:15:14;;;;;;;;;3.80;3.00;;;;;25.94;41.07;101571.47;5056320;28;46198;-60
2022/07/11 10:18:02;;;;;;;;;2.80;2.80;;;;;26.03;40.92;101580.09;5068589;28;45541;-61
2022/07/11 10:20:28;;;;;;;;;2.00;2.00;;;;;25.84;40.41;101554.72;5053144;28;46020;-60
2022/07/11 10:23:20;;;;;;;;;3.00;3.00;;;;;25.91;40.49;101551.53;5060904;28;45431;-58
2022/07/11 10:26:10;;;;;;;;;2.20;1.80;;;;;26.04;40.95;101564.06;5088807;27;45816;-59
2022/07/11 10:28:48;;;;;;;;;3.80;2.80;;;;;26.13;40.53;101581.97;5074632;27;45484;-59
2022/07/11 10:31:21;;;;;;;;;2.20;2.20;;;;;25.94;40.53;101540.53;5034602;28;45551;-57
2022/07/11 10:34:42;;;;;;;;;2.20;2.20;;;;;26.23;40.73;101583.84;5051556;28;45530;-61
2022/07/11 10:37:02;;;;;;;;;3.20;3.20;;;;;26.24;40.26;101568.66;5051460;28;46141;-60
2022/07/11 10:39:27;;;;;;;;;2.60;2.00;;;;;26.33;40.24;101580.94;5051702;28;45846;-59
2022/07/11 10:42:03;;;;;;;;;3.25;3.25;;;;;26.14;40.26;101549.88;5051043;28;45419;-61
2022/07/11 10:44:47;;;;;;;;;3.20;3.20;;;;;26.20;39.87;101551.50;5068659;28;45451;-60
2022/07/11 10:47:44;;;;;;;;;3.60;3.60;;;;;26.44;39.93;101581.66;5051075;28;46281;-56
2022/07/11 10:50:21;;;;;;;;;2.80;2.80;;;;;26.50;39.80;101574.81;5051189;28;45886;-61
2022/07/11 10:52:50;;;;;;;;;4.00;4.00;;;;;26.53;39.44;101579.81;5000386;28;46078;-60
2022/07/11 10:55:24;;;;;;;;;5.80;3.00;;;;;26.48;39.67;101553.75;5068514;27;45659;-60
2022/07/11 10:58:16;;;;;;;;;2.00;2.00;;;;;26.61;39.12;101572.69;5035486;28;46729;-60
2022/07/11 11:00:42;;;;;;;;;3.00;3.00;;;;;26.68;38.90;101577.13;5051406;28;45897;-60
2022/07/11 11:03:10;;;;;;;;;3.25;3.25;;;;;26.75;39.20;101578.44;5067011;28;46049;-59
2022/07/11 11:05:49;;;;;;;;;5.20;4.00;;;;;26.66;38.60;101554.91;5034710;28;45501;-59
2022/07/11 11:08:33;;;;;;;;;4.00;4.00;;;;;26.87;38.38;101586.44;5052151;28;45472;-60
2022/07/11 11:11:23;;;;;;;;;1.00;1.00;;;;;26.86;38.86;101573.50;5051453;28;45438;-56
2022/07/11 11:14:18;;;;;;;;;3.60;3.00;;;;;26.91;38.84;101578.25;5051993;28;45332;-59
2022/07/11 11:16:43;;;;;;;;;3.20;3.20;;;;;26.88;38.39;101559.94;5050769;28;45544;-60
2022/07/11 11:19:47;;;;;;;;;4.00;4.00;;;;;26.99;39.14;101560.66;5067750;28;46194;-59
2022/07/11 11:22:17;;;;;;;;;2.00;2.00;;;;;26.97;39.04;101531.13;4988661;28;45836;-60
2022/07/11 11:24:43;;;;;;;;;3.00;2.40;;;;;27.10;38.06;101540.81;5005676;28;45667;-60
2022/07/11 11:27:27;;;;;;;;;4.75;2.50;;;;;27.19;38.28;101548.25;5018677;28;45788;-62
2022/07/11 11:29:54;;;;;;;;;4.00;3.00;;;;;27.33;37.99;101553.09;5045781;27;47636;-62
2022/07/11 11:32:20;;;;;;;;;2.00;2.00;;;;;27.43;37.68;101563.38;5050866;28;47493;-63
2022/07/11 11:34:46;;;;;;;;;3.00;3.00;;;;;27.50;37.43;101554.50;5033738;28;45456;-60